Dalton, GA

3:43 AM EDT on October 01, 2014 (GMT -0400)
Downtown Dalton, GA | Change Station
CLOSE
Current Station
Personal Weather Station
Location: Dalton, GA
Elevation: 753 ft
Nearby Weather Stations

Elev 753 ft 34.76 °N, 84.96 °W | Updated 3 seconds ago

Fog
Fog
63.3 °F
Feels Like 63.3 °F
N
0.0
Wind Variable Wind from ENE
Gusts 0.0 mph

Today
High -- | Low -- °F
--% Chance of Precip.
Yesterday
High -- | Low -- °F
Precip. -- in
7:34 AM 7:23 PM
Waxing Crescent, 45% visible
Pressure 29.95 in
Visibility 3.0 miles
Clouds Mostly Cloudy 100 ft
Dew Point 61 °F
Humidity 92%
Rainfall 0.00 in
Snow Depth Not available.
UV 0 out of 12
Pollen 5.00 out of 12
Air Quality Not available.
Flu Activity Not available.
METAR KDNN 010655Z AUTO 00000KT 3SM BR BKN001 14/14 A2995 RMK AO2

More Conditions Fewer Conditions

Pressure 29.95 in
Visibility 3.0 miles
Clouds Mostly Cloudy 100 ft
Dew Point 61 °F
Humidity 92%
Rainfall 0.00 in
Snow Depth Not available.
UV 0 out of 12
Pollen 5.00 out of 12
Air Quality Not available.
Flu Activity Not available.
METAR KDNN 010655Z AUTO 00000KT 3SM BR BKN001 14/14 A2995 RMK AO2

More Conditions Fewer Conditions

10-Day Weather Forecast

Almanac

Astronomy

Oct. 01, 2014 Rise Set
Actual Time 7:34 AM EDT 7:23 PM EDT
Civil Twilight 7:09 AM EDT 7:49 PM EDT
Nautical Twilight 6:40 AM EDT 8:18 PM EDT
Astronomical Twilight 6:10 AM EDT 8:47 PM EDT
Moon 2:24 PM EDT 12:05 AM EDT
Length of Visible Light 12h 39m
Length of Day
11h 49m
Tomorrow will be 2m 9s shorter.
Waxing Crescent, 45% of the Moon is Illuminated
Today
Waxing Crescent
Oct 1
First Quarter
Oct 8
Full
Oct 15
Last Quarter
Oct 23
New

Today's Extremes

State Highs State Lows

Community

WunderPhotos

Upload Photos

1,757,898 photos uploaded!

Nearby

Snow Depth

Station Depth Elevation
No new snow has been reported.

Earthquake Activity

City Distance Mag. Time & Date
No recent earthquake activity has been reported nearby.
Minimum magnitude displayed is 2.5.

Coastal Water Temperatures

Place Temperature
No Stations Reporting

Nearby Weather Stations